createdAt,value
2023-03-10T01:26:12.449Z,11.81
2023-03-10T01:27:14.867Z,11.09
2023-03-10T01:28:17.325Z,10.39
2023-03-10T01:29:19.769Z,7.17
2023-03-10T01:30:22.236Z,8.65
2023-03-10T01:31:24.779Z,8.87
2023-03-10T01:32:27.401Z,11.35
2023-03-10T01:33:30.029Z,7.69
2023-03-10T01:34:32.551Z,15.03
2023-03-10T01:35:35.067Z,12.97
2023-03-10T01:36:38.010Z,8.11
2023-03-10T01:37:41.088Z,11.14
2023-03-10T01:38:44.637Z,8.41
2023-03-10T01:39:47.146Z,7.40
2023-03-10T01:40:49.893Z,8.36
2023-03-10T01:41:52.379Z,10.43
2023-03-10T01:42:54.729Z,12.00
2023-03-10T01:43:57.245Z,7.56
2023-03-10T01:44:59.675Z,10.61
2023-03-10T01:46:02.140Z,9.57
2023-03-10T01:47:04.607Z,11.48
2023-03-10T01:48:07.163Z,8.96
2023-03-10T01:49:09.717Z,7.59
2023-03-10T01:50:12.781Z,9.88
2023-03-10T01:51:15.358Z,16.16
2023-03-10T01:52:17.952Z,11.67
2023-03-10T01:53:20.517Z,9.13
2023-03-10T01:54:23.085Z,9.23
2023-03-10T01:55:25.631Z,6.41
2023-03-10T01:56:28.206Z,15.15
2023-03-10T01:57:30.828Z,9.25
2023-03-10T01:58:33.385Z,8.17
2023-03-10T01:59:35.842Z,9.41
2023-03-10T02:00:38.394Z,7.75
2023-03-10T02:01:41.029Z,10.14
2023-03-10T02:02:43.820Z,9.81
2023-03-10T02:03:46.306Z,10.75
2023-03-10T02:04:48.896Z,9.32
2023-03-10T02:05:51.370Z,8.45
2023-03-10T02:06:54.238Z,7.41
2023-03-10T02:07:56.739Z,9.23
2023-03-10T02:08:59.323Z,9.13
2023-03-10T02:10:01.828Z,6.30
2023-03-10T02:11:04.457Z,12.66
2023-03-10T02:12:07.029Z,14.99
2023-03-10T02:13:09.678Z,11.04
2023-03-10T02:14:12.247Z,13.55
2023-03-10T02:15:14.804Z,11.59
2023-03-10T02:16:17.427Z,9.36
2023-03-10T02:17:19.989Z,11.53
2023-03-10T02:18:22.614Z,9.36
2023-03-10T02:19:25.146Z,13.80
2023-03-10T02:20:27.977Z,9.34
2023-03-10T02:21:30.464Z,8.48
2023-03-10T02:22:33.028Z,12.17
2023-03-10T02:23:35.615Z,16.05
2023-03-10T02:24:38.209Z,9.99
2023-03-10T02:25:40.744Z,11.45
2023-03-10T02:26:43.809Z,11.21
2023-03-10T02:27:46.364Z,10.03
2023-03-10T02:28:48.983Z,13.12
2023-03-10T02:29:59.332Z,10.96
2023-03-10T02:30:56.058Z,13.59
2023-03-10T02:31:58.654Z,12.20
2023-03-10T02:33:01.306Z,10.10
2023-03-10T02:34:04.054Z,13.78
2023-03-10T02:35:06.602Z,11.26
2023-03-10T02:36:09.713Z,10.93
2023-03-10T02:37:12.307Z,8.54
2023-03-10T02:38:14.862Z,16.66
2023-03-10T02:39:17.461Z,9.66
2023-03-10T02:40:20.323Z,15.77
2023-03-10T02:41:22.894Z,9.99
2023-03-10T02:42:25.455Z,11.58
2023-03-10T02:43:28.036Z,11.57
2023-03-10T02:44:30.686Z,16.47
2023-03-10T02:45:33.477Z,13.29
2023-03-10T02:46:36.336Z,12.84
2023-03-10T02:47:38.890Z,13.59
2023-03-10T02:48:41.443Z,8.41
2023-03-10T02:49:44.047Z,9.61
2023-03-10T02:50:46.738Z,12.86
2023-03-10T02:51:49.300Z,16.57
2023-03-10T02:52:51.839Z,15.04
2023-03-10T02:53:54.292Z,10.72
2023-03-10T02:54:56.921Z,15.83
2023-03-10T02:55:59.430Z,12.23
2023-03-10T02:57:02.083Z,12.69
2023-03-10T02:58:04.653Z,11.06
2023-03-10T02:59:07.410Z,13.72
2023-03-10T03:00:10.163Z,13.79
2023-03-10T03:01:12.755Z,18.55
2023-03-10T03:02:15.430Z,12.73
2023-03-10T03:03:17.918Z,15.42
2023-03-10T03:04:20.606Z,12.49
2023-03-10T03:05:23.465Z,12.38
2023-03-10T03:06:26.223Z,18.39
2023-03-10T03:07:28.807Z,12.22
2023-03-10T03:08:31.459Z,10.96
2023-03-10T03:09:34.029Z,17.92
2023-03-10T03:10:36.843Z,13.58
2023-03-10T03:11:40.130Z,16.30
2023-03-10T03:12:42.725Z,9.68
2023-03-10T03:13:45.271Z,10.51
2023-03-10T03:14:47.729Z,10.82
2023-03-10T03:15:50.354Z,12.93
2023-03-10T03:16:53.189Z,11.14
2023-03-10T03:17:55.783Z,14.45
2023-03-10T03:18:58.342Z,11.46
2023-03-10T03:20:00.912Z,13.47
2023-03-10T03:21:03.512Z,12.43
2023-03-10T03:22:06.112Z,13.18
2023-03-10T03:23:08.667Z,14.71
2023-03-10T03:24:11.147Z,14.73
2023-03-10T03:25:13.790Z,12.65
2023-03-10T03:26:16.585Z,13.86
2023-03-10T03:27:19.134Z,15.95
2023-03-10T03:28:21.622Z,10.87
2023-03-10T03:29:24.176Z,11.93
2023-03-10T03:30:26.734Z,13.78
2023-03-10T03:31:29.631Z,14.03
2023-03-10T03:32:32.219Z,13.13
2023-03-10T03:33:34.932Z,14.83
2023-03-10T03:34:37.477Z,14.09
2023-03-10T03:35:39.987Z,15.72
2023-03-10T03:36:42.662Z,16.47
2023-03-10T03:37:45.204Z,22.57
2023-03-10T03:38:47.778Z,15.88
2023-03-10T03:39:50.410Z,12.02
2023-03-10T03:40:53.317Z,12.48
2023-03-10T03:41:55.909Z,10.63
2023-03-10T03:42:58.478Z,12.60
2023-03-10T03:44:01.102Z,21.02
2023-03-10T03:45:03.689Z,11.47
2023-03-10T03:46:06.394Z,11.21
2023-03-10T03:47:09.186Z,14.01
2023-03-10T03:48:12.011Z,12.73
2023-03-10T03:49:14.847Z,11.21
2023-03-10T03:50:18.222Z,11.61
2023-03-10T03:51:21.099Z,15.56
2023-03-10T03:52:23.679Z,12.31
2023-03-10T03:53:26.235Z,13.26
2023-03-10T03:54:28.790Z,16.69
2023-03-10T03:55:31.429Z,12.38
2023-03-10T03:56:33.978Z,16.05
2023-03-10T03:57:36.561Z,18.99
2023-03-10T03:58:39.126Z,12.81
2023-03-10T03:59:41.715Z,11.61
2023-03-10T04:00:44.331Z,14.26
2023-03-10T04:01:46.851Z,16.98
2023-03-10T04:02:49.571Z,20.07
2023-03-10T04:03:52.459Z,15.84
2023-03-10T04:04:55.250Z,19.83
2023-03-10T04:05:57.913Z,12.01
2023-03-10T04:07:00.696Z,14.70
2023-03-10T04:08:03.296Z,14.49
2023-03-10T04:09:05.871Z,10.21
2023-03-10T04:10:08.642Z,14.93
2023-03-10T04:11:11.218Z,19.51
2023-03-10T04:12:13.812Z,18.56
2023-03-10T04:13:16.598Z,13.51
2023-03-10T04:14:19.094Z,13.19
2023-03-10T04:15:21.672Z,19.35
2023-03-10T04:16:24.400Z,15.19
2023-03-10T04:17:26.922Z,15.38
2023-03-10T04:18:29.563Z,12.57
2023-03-10T04:19:32.166Z,16.44
2023-03-10T04:20:34.926Z,16.67
2023-03-10T04:21:37.728Z,12.14
2023-03-10T04:22:40.298Z,18.47
2023-03-10T04:23:42.913Z,12.81
2023-03-10T04:24:45.500Z,14.99
2023-03-10T04:25:48.077Z,12.06
2023-03-10T04:26:50.660Z,20.94
2023-03-10T04:27:53.266Z,15.18
2023-03-10T04:28:55.883Z,10.45
2023-03-10T04:29:58.454Z,12.14
2023-03-10T04:31:01.193Z,13.06
2023-03-10T04:32:05.856Z,16.87
2023-03-10T04:33:08.209Z,17.47
2023-03-10T04:34:10.997Z,17.22
2023-03-10T04:35:13.578Z,14.56
2023-03-10T04:36:16.974Z,10.04
2023-03-10T04:37:19.911Z,16.07
2023-03-10T04:38:22.518Z,16.58
2023-03-10T04:39:25.137Z,12.66
2023-03-10T04:40:27.733Z,14.09
2023-03-10T04:41:30.528Z,15.96
2023-03-10T04:42:33.160Z,13.25
2023-03-10T04:43:35.772Z,11.67
2023-03-10T04:44:38.409Z,15.04
2023-03-10T04:45:40.994Z,15.75
2023-03-10T04:46:44.036Z,7.32
2023-03-10T04:47:46.893Z,11.83
2023-03-10T05:11:37.043Z,13.37
2023-03-10T05:12:39.632Z,11.66
2023-03-10T05:13:42.228Z,20.06
2023-03-10T05:14:44.861Z,18.32
2023-03-10T05:15:47.515Z,13.25
2023-03-10T05:16:50.385Z,11.43
2023-03-10T05:17:53.033Z,13.84
2023-03-10T05:18:55.560Z,17.37
2023-03-10T05:19:58.165Z,14.59
2023-03-10T05:21:00.951Z,13.71
2023-03-10T05:22:03.611Z,10.67
2023-03-10T05:23:06.691Z,13.07
2023-03-10T05:24:09.443Z,16.21
2023-03-10T05:25:12.087Z,15.65
2023-03-10T05:26:15.262Z,12.89
2023-03-10T05:27:18.288Z,11.14
2023-03-10T05:28:20.867Z,12.37
2023-03-10T05:29:24.519Z,14.01
2023-03-10T05:30:27.522Z,13.61
2023-03-10T05:31:30.232Z,21.08
2023-03-10T05:32:33.156Z,12.06
2023-03-10T05:33:35.767Z,10.61
2023-03-10T05:34:38.348Z,14.61
2023-03-10T05:35:41.067Z,14.76
2023-03-10T05:36:44.239Z,15.97
2023-03-10T05:37:46.838Z,15.93
2023-03-10T05:38:49.413Z,19.69
2023-03-10T05:39:51.988Z,15.69
2023-03-10T05:40:54.569Z,15.63
2023-03-10T05:41:57.142Z,17.69
2023-03-10T05:42:59.767Z,13.71
2023-03-10T05:44:02.460Z,13.69
2023-03-10T05:45:05.046Z,15.64
2023-03-10T05:46:07.975Z,10.14
2023-03-10T05:47:10.548Z,12.88
2023-03-10T05:48:13.160Z,17.90
2023-03-10T05:49:15.844Z,13.32
2023-03-10T05:50:18.459Z,11.44
2023-03-10T05:51:21.034Z,14.68
2023-03-10T05:52:23.663Z,10.95
2023-03-10T05:53:26.253Z,13.46
2023-03-10T05:54:28.870Z,11.27
2023-03-10T05:55:31.456Z,10.96
2023-03-10T05:56:34.048Z,16.06
2023-03-10T05:57:36.610Z,9.85
2023-03-10T05:58:39.299Z,14.60
2023-03-10T05:59:41.910Z,14.01
2023-03-10T06:00:44.572Z,9.49
2023-03-10T06:01:47.169Z,11.53
2023-03-10T06:02:49.802Z,10.22
2023-03-10T06:03:52.632Z,10.61
2023-03-10T06:04:55.472Z,7.87
2023-03-10T06:05:58.086Z,10.10
2023-03-10T06:07:00.749Z,13.37
2023-03-10T06:08:03.256Z,13.16
2023-03-10T06:09:05.942Z,14.81
2023-03-10T06:10:08.906Z,11.63
2023-03-10T06:11:11.710Z,15.23
2023-03-10T06:12:14.294Z,13.74
2023-03-10T06:13:16.897Z,12.52
2023-03-10T06:14:19.557Z,12.13
2023-03-10T06:15:22.366Z,16.13
2023-03-10T06:16:25.397Z,14.51
2023-03-10T06:17:28.144Z,14.98
2023-03-10T06:18:30.760Z,13.09
2023-03-10T06:19:33.439Z,12.67
2023-03-10T06:20:36.052Z,14.74
2023-03-10T06:21:38.606Z,15.95
2023-03-10T06:22:41.187Z,13.25
2023-03-10T06:23:43.763Z,16.27
2023-03-10T06:24:46.452Z,15.97
2023-03-10T06:25:49.033Z,7.59
2023-03-10T06:26:51.826Z,15.36
2023-03-10T06:27:54.463Z,15.99
2023-03-10T06:28:57.054Z,12.46
2023-03-10T06:29:59.665Z,17.79
2023-03-10T06:31:02.469Z,17.48
2023-03-10T06:32:05.128Z,14.16
2023-03-10T06:33:07.859Z,10.74
2023-03-10T06:34:10.523Z,13.70
2023-03-10T06:35:13.132Z,13.36
2023-03-10T06:36:15.922Z,14.16
2023-03-10T06:37:18.532Z,14.26
2023-03-10T06:38:21.112Z,17.03
2023-03-10T06:39:25.474Z,19.95
2023-03-10T06:40:28.200Z,15.49
2023-03-10T06:41:30.854Z,20.05
2023-03-10T06:42:33.425Z,13.07
2023-03-10T06:43:36.012Z,14.30
2023-03-10T06:44:38.613Z,14.29
2023-03-10T06:45:41.454Z,19.63
2023-03-10T06:46:44.310Z,13.69
2023-03-10T06:47:46.941Z,13.84
2023-03-10T06:48:49.654Z,15.19
2023-03-10T06:49:52.191Z,17.31
2023-03-10T06:50:55.112Z,21.60
2023-03-10T06:51:57.688Z,15.71
2023-03-10T06:53:00.279Z,24.43
2023-03-10T06:54:02.847Z,14.92
2023-03-10T06:55:05.431Z,21.98
2023-03-10T06:56:08.480Z,21.29
2023-03-10T06:57:11.046Z,23.95
2023-03-10T06:58:13.628Z,21.76
2023-03-10T06:59:16.215Z,16.03
2023-03-10T07:00:18.804Z,17.49
2023-03-10T07:01:23.185Z,16.22
2023-03-10T07:02:25.984Z,17.37
2023-03-10T07:03:28.578Z,17.61
2023-03-10T07:04:31.205Z,18.88
2023-03-10T07:05:33.744Z,20.01
2023-03-10T07:06:36.387Z,15.62
2023-03-10T07:07:39.006Z,18.92
2023-03-10T07:08:41.565Z,14.99
2023-03-10T07:09:44.141Z,20.43
2023-03-10T07:10:47.030Z,20.42
2023-03-10T07:11:49.640Z,17.42
2023-03-10T07:12:52.270Z,18.94
2023-03-10T07:13:54.929Z,16.69
2023-03-10T07:14:57.530Z,19.34
2023-03-10T07:16:00.128Z,16.07
2023-03-10T07:17:02.842Z,16.59
2023-03-10T07:18:05.499Z,15.81
2023-03-10T07:19:08.436Z,22.66
2023-03-10T07:20:11.418Z,16.55
2023-03-10T07:21:14.013Z,18.78
2023-03-10T07:22:16.622Z,14.71
2023-03-10T07:23:19.180Z,13.36
2023-03-10T07:24:21.754Z,17.99
2023-03-10T07:25:24.440Z,16.97
2023-03-10T07:26:27.116Z,14.99
2023-03-10T07:27:29.775Z,16.24
2023-03-10T07:28:32.349Z,16.10
2023-03-10T07:29:34.945Z,15.21
2023-03-10T07:30:37.790Z,16.56
2023-03-10T07:31:40.492Z,13.88
2023-03-10T07:32:43.159Z,13.84
2023-03-10T07:33:45.700Z,13.35
2023-03-10T07:34:48.284Z,15.94
2023-03-10T07:35:50.917Z,15.95
2023-03-10T12:43:46.452Z,5.32
2023-03-10T12:44:48.890Z,5.46
2023-03-10T12:45:51.338Z,3.68
2023-03-10T12:46:53.908Z,4.72
2023-03-10T12:47:56.602Z,4.67
2023-03-10T12:48:59.104Z,4.19
2023-03-10T12:50:01.570Z,4.45
2023-03-10T12:51:04.027Z,4.27
2023-03-10T12:52:06.472Z,6.29
2023-03-10T12:53:09.063Z,5.03
2023-03-10T12:54:11.502Z,5.29
2023-03-10T12:55:14.053Z,5.29
2023-03-10T12:56:16.703Z,3.74
2023-03-10T12:57:19.168Z,4.98
2023-03-10T12:58:21.608Z,4.75
2023-03-10T12:59:24.110Z,4.27
2023-03-10T13:00:26.624Z,4.46
2023-03-10T13:01:29.128Z,5.61
2023-03-10T13:02:33.662Z,4.42
2023-03-10T13:03:35.886Z,5.94
2023-03-10T13:04:38.454Z,7.67
2023-03-10T13:05:40.902Z,4.62
2023-03-10T13:06:43.460Z,4.15
2023-03-10T13:07:45.921Z,6.62
2023-03-10T13:08:48.396Z,4.53
2023-03-10T13:09:50.934Z,4.05
2023-03-10T13:10:53.463Z,6.65
2023-03-10T13:11:56.212Z,3.91
2023-03-10T13:12:58.678Z,5.69
2023-03-10T13:14:01.120Z,4.59
2023-03-10T13:15:03.661Z,6.15
2023-03-10T13:16:06.540Z,4.18
2023-03-10T13:17:08.973Z,4.63
2023-03-10T13:18:11.485Z,3.88
2023-03-10T13:19:13.953Z,4.05
2023-03-10T13:20:16.620Z,4.48
2023-03-10T13:21:19.089Z,5.77
2023-03-10T13:22:21.528Z,4.90
2023-03-10T13:23:24.007Z,5.23
2023-03-10T13:24:26.447Z,4.97
2023-03-10T13:25:28.868Z,5.45
2023-03-10T13:26:31.384Z,7.97
2023-03-10T13:27:33.876Z,6.49
2023-03-10T13:28:36.365Z,6.68
2023-03-10T13:29:38.875Z,6.12
2023-03-10T13:30:41.380Z,4.85
2023-03-10T13:31:43.926Z,6.21
2023-03-10T13:32:46.393Z,6.63
2023-03-10T13:33:53.227Z,7.59
2023-03-10T13:34:53.177Z,8.69
2023-03-10T13:35:55.783Z,7.20
2023-03-10T13:36:58.424Z,6.93
2023-03-10T13:38:00.782Z,6.82
2023-03-10T13:39:03.231Z,8.05
2023-03-10T13:40:06.126Z,8.00
2023-03-10T13:41:08.628Z,5.77
2023-03-10T13:42:11.082Z,7.25
2023-03-10T13:43:13.553Z,6.75
2023-03-10T13:44:15.947Z,8.74
2023-03-10T13:45:18.532Z,8.55
2023-03-10T13:46:21.241Z,6.97
2023-03-10T13:47:23.912Z,6.45
2023-03-10T13:48:26.397Z,6.41
2023-03-10T13:49:28.923Z,8.97
2023-03-10T13:50:31.277Z,6.92
2023-03-10T13:51:33.779Z,6.71
2023-03-10T13:52:36.285Z,5.91
2023-03-10T13:53:39.007Z,5.09
2023-03-10T13:54:41.458Z,6.25
2023-03-10T13:55:43.910Z,6.04
2023-03-10T13:56:46.296Z,6.22
2023-03-10T13:57:48.777Z,8.28
2023-03-10T13:58:51.293Z,6.40
2023-03-10T13:59:53.769Z,5.19
2023-03-10T14:00:56.349Z,9.12
2023-03-10T14:01:59.108Z,6.66
2023-03-10T14:03:01.870Z,4.99
2023-03-10T14:04:04.371Z,5.78
2023-03-10T14:05:07.080Z,7.84
2023-03-10T14:06:09.795Z,4.80
2023-03-10T14:07:12.289Z,4.37
2023-03-10T14:08:14.868Z,5.27
2023-03-10T14:09:17.344Z,6.09
2023-03-10T14:10:19.876Z,5.88
2023-03-10T14:11:22.585Z,7.40
2023-03-10T14:12:25.048Z,6.03
2023-03-10T14:13:27.514Z,9.03
2023-03-10T14:14:29.971Z,6.37
2023-03-10T14:15:32.325Z,6.45
2023-03-10T14:16:34.892Z,5.62
2023-03-10T14:17:37.379Z,9.65
2023-03-10T14:18:40.023Z,7.27
2023-03-10T14:19:42.483Z,5.69
2023-03-10T14:20:44.937Z,5.81
2023-03-10T14:22:00.251Z,9.39
2023-03-10T14:22:51.713Z,9.95
2023-03-10T14:23:54.174Z,12.57
2023-03-10T14:24:56.629Z,13.51
2023-03-10T14:25:59.078Z,11.81
2023-03-10T14:27:01.948Z,8.34
2023-03-10T14:28:04.481Z,7.32
2023-03-10T14:29:06.948Z,8.71
2023-03-10T14:30:09.969Z,9.88
2023-03-10T14:31:13.035Z,11.42
2023-03-10T14:32:15.619Z,7.37
2023-03-10T14:33:18.065Z,8.10
2023-03-10T14:34:20.563Z,9.23
2023-03-10T14:35:23.053Z,8.33
2023-03-10T14:36:25.617Z,10.05
2023-03-10T14:37:28.049Z,13.98
2023-03-10T14:38:30.518Z,6.96
2023-03-10T14:39:32.970Z,7.07
2023-03-10T14:40:35.636Z,5.77
2023-03-10T14:41:38.129Z,6.03
2023-03-10T14:42:40.756Z,10.15
2023-03-10T14:43:43.251Z,6.83
2023-03-10T14:44:45.704Z,6.91
2023-03-10T14:45:48.432Z,8.15
2023-03-10T14:46:51.326Z,7.81
2023-03-10T14:47:54.297Z,6.33
2023-03-10T14:48:57.193Z,11.46
2023-03-10T14:49:59.639Z,7.17
2023-03-10T14:51:02.091Z,9.42
2023-03-10T14:52:04.546Z,5.74
2023-03-10T14:53:07.017Z,8.01
2023-03-10T14:54:09.517Z,8.38
2023-03-10T14:55:11.984Z,10.65
2023-03-10T14:56:14.835Z,6.59
2023-03-10T14:57:17.291Z,8.40
2023-03-10T14:58:19.787Z,8.64
2023-03-10T14:59:22.249Z,7.55
2023-03-10T15:00:24.710Z,8.47
2023-03-10T15:01:27.214Z,9.42
2023-03-10T15:02:29.937Z,14.04
2023-03-10T15:03:32.595Z,9.31
2023-03-10T15:04:35.183Z,6.72
2023-03-10T15:05:48.309Z,8.62
2023-03-10T15:06:42.528Z,8.79
2023-03-10T15:07:45.354Z,7.82
2023-03-10T15:08:47.877Z,14.47
2023-03-10T15:09:54.583Z,11.57
2023-03-10T15:10:54.797Z,11.11
2023-03-10T15:11:57.409Z,10.97
2023-03-10T15:13:00.037Z,10.29
2023-03-10T15:14:02.592Z,9.84
2023-03-10T15:15:05.190Z,7.67
2023-03-10T15:16:08.328Z,7.87
2023-03-10T15:17:10.994Z,8.81
2023-03-10T15:18:13.617Z,8.15
2023-03-10T15:19:16.110Z,7.62
2023-03-10T15:20:18.867Z,9.27
2023-03-10T15:21:21.561Z,7.46
2023-03-10T15:22:24.090Z,10.28
2023-03-10T15:23:26.701Z,9.58
2023-03-10T15:24:29.348Z,9.96
2023-03-10T15:25:31.930Z,8.53
2023-03-10T15:26:34.808Z,10.45
2023-03-10T15:27:37.354Z,9.04
2023-03-10T15:28:39.911Z,7.83
2023-03-10T15:29:42.395Z,8.74
2023-03-10T15:30:44.997Z,9.33
2023-03-10T15:31:47.639Z,9.13
2023-03-10T15:32:50.557Z,13.38
2023-03-10T15:33:53.160Z,11.31
2023-03-10T15:34:55.711Z,8.55
2023-03-10T15:35:58.306Z,9.10
2023-03-10T15:37:01.172Z,11.56
2023-03-10T15:38:03.688Z,9.13
2023-03-10T15:39:06.308Z,9.03
2023-03-10T15:40:09.226Z,10.06
2023-03-10T15:41:12.109Z,11.44
2023-03-10T15:42:14.691Z,11.08
2023-03-10T15:43:17.285Z,9.07
2023-03-10T15:44:19.869Z,15.33
2023-03-10T15:46:32.231Z,9.99
2023-03-10T15:47:34.996Z,12.97
2023-03-10T15:48:37.613Z,13.67
2023-03-10T15:49:40.156Z,14.62
2023-03-10T15:50:42.776Z,12.52
2023-03-10T15:51:45.539Z,12.31
2023-03-10T15:52:48.255Z,8.99
2023-03-10T15:53:50.895Z,9.11
2023-03-10T15:54:53.436Z,13.30
2023-03-10T15:55:56.319Z,11.16
2023-03-10T15:56:58.927Z,9.43
2023-03-10T15:58:01.680Z,14.65
2023-03-10T15:59:04.287Z,11.71
2023-03-10T16:00:07.418Z,10.09
2023-03-10T16:01:09.978Z,10.61
2023-03-10T16:02:12.587Z,9.88
2023-03-10T16:03:18.095Z,12.71
2023-03-10T16:04:19.817Z,12.65
2023-03-10T16:05:22.490Z,9.09
2023-03-10T16:06:25.405Z,8.84
2023-03-10T16:07:28.032Z,9.16
2023-03-10T16:08:30.645Z,8.73
2023-03-10T16:09:33.137Z,7.05
2023-03-10T16:10:35.730Z,8.94
2023-03-10T16:11:38.296Z,9.00
2023-03-10T16:12:40.889Z,12.15
2023-03-10T16:13:43.432Z,11.27
2023-03-10T16:14:45.987Z,8.57
2023-03-10T16:15:48.586Z,8.58
2023-03-10T16:16:51.253Z,13.75
2023-03-10T16:17:53.822Z,10.17
2023-03-10T16:18:56.379Z,12.02
2023-03-10T16:19:58.945Z,12.41
2023-03-10T16:21:01.479Z,10.31
2023-03-10T16:22:04.271Z,10.06
2023-03-10T16:23:06.909Z,10.30
2023-03-10T16:24:09.470Z,12.27
2023-03-10T16:25:12.036Z,9.52
2023-03-10T16:26:14.914Z,8.96
2023-03-10T16:27:17.481Z,7.53
2023-03-10T16:28:20.060Z,9.38
2023-03-10T16:29:22.613Z,8.37
2023-03-10T16:30:25.204Z,12.93
2023-03-10T16:31:27.929Z,11.21
2023-03-10T16:32:30.553Z,10.11
2023-03-10T16:33:33.314Z,8.79
2023-03-10T16:34:35.983Z,9.47
2023-03-10T16:35:38.648Z,11.26
2023-03-10T16:36:41.248Z,13.87
2023-03-10T16:37:43.760Z,14.59
2023-03-10T16:38:46.344Z,11.07
2023-03-10T16:39:49.026Z,10.80
2023-03-10T16:40:51.606Z,9.85
2023-03-10T16:41:54.155Z,9.84
2023-03-10T16:42:56.741Z,10.04
2023-03-10T16:43:59.313Z,11.40
2023-03-10T16:45:01.869Z,9.97
2023-03-10T16:46:04.704Z,11.33
2023-03-10T16:47:07.407Z,10.02
2023-03-10T16:48:09.987Z,12.37
2023-03-10T16:49:12.611Z,11.47
2023-03-10T16:50:15.369Z,9.23
2023-03-10T16:51:18.012Z,11.08
2023-03-10T16:52:20.565Z,9.57
2023-03-10T16:53:23.384Z,10.55
2023-03-10T16:54:26.005Z,12.93
2023-03-10T16:55:28.564Z,11.08
2023-03-10T16:56:31.125Z,10.18
2023-03-10T16:57:33.936Z,9.89
2023-03-10T16:58:36.625Z,10.61
2023-03-10T16:59:39.204Z,10.04
2023-03-10T17:00:41.782Z,11.66
2023-03-10T17:01:44.409Z,10.90
2023-03-10T17:02:47.068Z,12.90
2023-03-10T17:03:49.657Z,10.03
2023-03-10T17:04:52.237Z,10.56
2023-03-10T17:05:54.790Z,11.29
2023-03-10T17:06:57.248Z,13.67
2023-03-10T17:07:59.809Z,10.80
2023-03-10T17:09:02.387Z,10.65
2023-03-10T17:10:04.904Z,8.55
2023-03-10T17:11:07.780Z,10.06
2023-03-10T17:12:10.429Z,8.68
2023-03-10T17:13:13.021Z,9.01
2023-03-10T17:14:15.613Z,11.04
2023-03-10T17:15:18.286Z,11.09
2023-03-10T17:16:21.217Z,13.98
2023-03-10T17:17:23.912Z,10.77
2023-03-10T17:18:26.474Z,8.31
2023-03-10T17:19:29.069Z,10.21
2023-03-10T17:20:31.684Z,11.47
2023-03-10T17:21:34.208Z,12.74
2023-03-10T17:22:37.940Z,10.28
2023-03-10T17:23:41.129Z,10.22
2023-03-10T17:24:43.704Z,9.27
2023-03-10T17:25:46.347Z,9.77
2023-03-10T17:26:49.074Z,11.49
2023-03-10T17:27:51.722Z,9.55
2023-03-10T17:28:54.300Z,9.85
2023-03-10T17:29:56.871Z,10.95
2023-03-10T17:30:59.807Z,7.84
2023-03-10T17:32:02.423Z,9.22
2023-03-10T17:33:05.136Z,10.79
2023-03-10T17:34:07.645Z,13.33
2023-03-10T17:35:10.426Z,9.50
2023-03-10T17:36:13.117Z,9.41
2023-03-10T17:37:15.729Z,8.96
2023-03-10T17:38:18.225Z,8.19
2023-03-10T17:39:20.784Z,10.09
2023-03-10T17:40:23.337Z,9.03
2023-03-10T17:41:25.861Z,16.31
2023-03-10T17:42:28.513Z,13.11
2023-03-10T17:43:34.275Z,12.89
2023-03-10T17:44:35.455Z,12.81
2023-03-10T17:45:38.025Z,14.01
2023-03-10T17:46:40.781Z,17.44
2023-03-10T17:47:43.435Z,11.44
2023-03-10T17:48:45.992Z,13.60
2023-03-10T17:49:48.836Z,12.61
2023-03-10T17:50:51.404Z,12.51
2023-03-10T17:51:54.172Z,12.50
2023-03-10T17:52:56.724Z,12.83
2023-03-10T17:53:59.385Z,12.66
2023-03-10T17:55:02.051Z,10.31
2023-03-10T17:56:04.635Z,12.94
2023-03-10T17:57:07.462Z,11.16
2023-03-10T17:58:10.131Z,13.24
2023-03-10T17:59:12.676Z,13.12
2023-03-10T18:00:15.470Z,12.40
2023-03-10T18:01:18.033Z,11.96
2023-03-10T18:02:20.683Z,15.97
2023-03-10T18:03:23.459Z,12.89
2023-03-10T18:04:26.082Z,15.28
2023-03-10T18:05:28.698Z,11.65
2023-03-10T18:06:31.670Z,12.11
2023-03-10T18:07:34.267Z,13.48
2023-03-10T18:08:36.881Z,14.14
2023-03-10T18:09:39.438Z,15.27
2023-03-10T18:10:42.002Z,16.63
2023-03-10T18:11:44.557Z,14.37
2023-03-10T18:12:47.156Z,13.51
2023-03-10T18:13:49.729Z,15.87
2023-03-10T18:14:52.287Z,12.33
2023-03-10T18:15:54.903Z,15.13
2023-03-10T18:16:57.506Z,14.37
2023-03-10T18:18:00.133Z,13.75
2023-03-10T18:19:03.008Z,17.01
2023-03-10T18:20:05.841Z,13.29
2023-03-10T18:21:08.396Z,16.49
2023-03-10T18:22:11.013Z,15.53
2023-03-10T18:23:13.613Z,16.25
2023-03-10T18:24:16.175Z,16.56
2023-03-10T18:25:18.740Z,14.62
2023-03-10T18:26:21.557Z,15.40
2023-03-10T18:27:24.117Z,14.53
2023-03-10T18:28:26.706Z,12.88
2023-03-10T18:29:29.279Z,15.41
2023-03-10T18:30:31.937Z,13.26
2023-03-10T18:31:34.515Z,12.93
2023-03-10T18:32:37.085Z,12.75
2023-03-10T18:33:39.678Z,13.30
2023-03-10T18:34:42.478Z,11.62
2023-03-10T18:35:45.068Z,15.15
2023-03-10T18:36:47.688Z,12.92
2023-03-10T18:37:50.286Z,15.77
2023-03-10T18:38:52.896Z,14.97
2023-03-10T18:39:55.470Z,12.05
2023-03-10T18:40:58.024Z,10.67
2023-03-10T18:42:00.577Z,11.37
2023-03-10T18:43:03.148Z,12.07
2023-03-10T18:44:05.775Z,13.51
2023-03-10T18:45:08.324Z,14.11
2023-03-10T18:46:11.010Z,12.93
2023-03-10T18:47:13.617Z,12.16
2023-03-10T18:48:16.110Z,12.47
2023-03-10T18:49:18.608Z,12.58
2023-03-10T18:50:21.184Z,14.59
2023-03-10T18:51:23.788Z,12.23
2023-03-10T18:52:26.341Z,12.63
2023-03-10T18:53:28.886Z,12.25
2023-03-10T18:54:31.542Z,13.88
2023-03-10T18:55:34.066Z,13.15
2023-03-10T18:56:36.658Z,11.70
2023-03-10T18:57:39.231Z,15.99
2023-03-10T18:58:41.857Z,13.30
2023-03-10T18:59:44.677Z,13.22
2023-03-10T19:00:47.452Z,10.82
2023-03-10T19:01:50.067Z,12.81
2023-03-10T19:02:52.682Z,14.33
2023-03-10T19:03:55.490Z,12.81
2023-03-10T19:04:58.134Z,12.47
2023-03-10T19:06:00.759Z,15.53
2023-03-10T19:07:03.313Z,12.38
2023-03-10T19:08:05.925Z,12.36
2023-03-10T19:09:08.506Z,16.23
2023-03-10T19:10:11.503Z,12.64
2023-03-10T19:11:14.130Z,12.84
2023-03-10T19:12:16.849Z,13.53
2023-03-10T19:13:19.495Z,16.86
2023-03-10T19:14:22.318Z,15.87
2023-03-10T19:15:24.956Z,12.45
2023-03-10T19:16:27.578Z,15.53
2023-03-10T19:17:30.177Z,14.33
2023-03-10T19:18:32.732Z,14.63
2023-03-10T19:19:35.292Z,15.83
2023-03-10T19:20:38.179Z,16.21
2023-03-10T19:21:40.810Z,13.63
2023-03-10T19:22:43.415Z,15.27
2023-03-10T19:23:45.953Z,13.53
2023-03-10T19:24:48.581Z,14.07
2023-03-10T19:25:51.175Z,14.01
2023-03-10T19:26:53.864Z,11.73
2023-03-10T19:27:56.424Z,12.79
2023-03-10T19:28:59.043Z,14.32
2023-03-10T19:30:01.605Z,13.67
2023-03-10T19:31:04.224Z,14.02
2023-03-10T19:32:06.845Z,12.62
2023-03-10T19:33:09.472Z,13.69
2023-03-10T19:34:12.309Z,15.06
2023-03-10T19:35:14.845Z,14.74
2023-03-10T19:36:17.981Z,12.46
2023-03-10T19:37:20.799Z,14.91
2023-03-10T19:38:23.408Z,14.01
2023-03-10T19:39:26.012Z,13.12
2023-03-10T19:40:28.579Z,16.97
2023-03-10T19:41:31.232Z,12.83
2023-03-10T19:42:33.904Z,12.01
2023-03-10T19:43:36.434Z,20.45
2023-03-10T19:44:40.230Z,13.69
2023-03-10T19:45:42.935Z,13.26
2023-03-10T19:46:45.565Z,11.76
2023-03-10T19:47:48.110Z,12.23
2023-03-10T19:48:50.739Z,15.02
2023-03-10T19:49:53.590Z,17.60
2023-03-10T19:50:56.188Z,14.41
2023-03-10T19:51:58.798Z,12.81
2023-03-10T19:53:01.386Z,15.51
2023-03-10T19:54:03.956Z,14.13
2023-03-10T19:55:06.632Z,11.63
2023-03-10T19:56:09.294Z,17.89
2023-03-10T19:57:11.994Z,13.14
2023-03-10T19:58:14.556Z,13.89
2023-03-10T19:59:17.139Z,11.56
2023-03-10T20:00:19.934Z,14.26
2023-03-10T20:01:23.334Z,13.79
2023-03-10T20:02:26.343Z,13.47
2023-03-10T20:03:28.933Z,12.33
2023-03-10T20:04:31.524Z,13.21
2023-03-10T20:05:34.117Z,14.17
2023-03-10T20:06:36.907Z,13.03
2023-03-10T20:07:39.480Z,14.55
2023-03-10T20:08:42.068Z,13.11
2023-03-10T20:09:44.651Z,13.60
2023-03-10T20:10:47.284Z,14.23
2023-03-10T20:11:49.817Z,12.45
2023-03-10T20:12:52.637Z,13.27
2023-03-10T20:13:55.322Z,14.35
2023-03-10T20:14:58.249Z,14.87
2023-03-10T20:16:00.790Z,13.35
2023-03-10T20:17:03.355Z,15.61
2023-03-10T20:18:05.892Z,18.41
2023-03-10T20:19:08.459Z,14.85
2023-03-10T20:20:11.217Z,16.59
2023-03-10T20:21:13.843Z,15.63
2023-03-10T20:22:16.551Z,13.58
2023-03-10T20:23:19.146Z,11.61
2023-03-10T20:24:21.763Z,12.63
2023-03-10T20:25:24.485Z,15.93
2023-03-10T20:26:27.154Z,13.37
2023-03-10T20:27:29.979Z,12.91
2023-03-10T20:28:32.565Z,13.18
2023-03-10T20:29:35.375Z,13.19
2023-03-10T20:30:38.210Z,17.07
2023-03-10T20:31:40.843Z,13.68